Time;durP1;ratioP1;P1;durP2;ratioP2;P2;SDS_P1;SDS_P2;PMS_P1;PMS_P2;Temp;Humidity;BMP_temperature;BMP_pressure;BME280_temperature;BME280_humidity;BME280_pressure;Samples;Min_cycle;Max_cycle;Signal;HPM_P1;HPM_P2
2022/07/12 00:00:21;;;;;;;0.10;0.10;;;;;;;20.46;59.37;102501.59;4990067;28;20034;-79
2022/07/12 00:02:47;;;;;;;1.95;1.75;;;;;;;20.44;59.32;102499.88;4984151;28;20059;-79
2022/07/12 00:05:13;;;;;;;0.10;0.10;;;;;;;20.42;59.63;102493.66;4993325;28;20042;-80
2022/07/12 00:07:39;;;;;;;0.10;0.10;;;;;;;20.40;59.76;102493.72;4993080;28;20030;-80
2022/07/12 00:10:05;;;;;;;1.35;0.73;;;;;;;20.39;59.27;102493.75;4992767;28;20030;-79
2022/07/12 00:12:32;;;;;;;0.55;0.55;;;;;;;20.35;59.65;102499.25;4992070;28;20053;-80
2022/07/12 00:14:58;;;;;;;0.10;0.10;;;;;;;20.32;59.51;102504.75;4985541;28;20084;-79
2022/07/12 00:17:24;;;;;;;0.00;0.00;;;;;;;20.30;59.15;102501.25;4989913;28;20034;-79
2022/07/12 00:19:50;;;;;;;0.10;0.10;;;;;;;20.30;59.38;102495.84;4992810;28;20126;-80
2022/07/12 00:22:17;;;;;;;1.13;0.65;;;;;;;20.29;59.58;102504.88;4991143;28;20049;-79
2022/07/12 00:24:43;;;;;;;3.00;0.57;;;;;;;20.27;59.31;102501.34;4990016;28;20045;-80
2022/07/12 00:27:09;;;;;;;0.20;0.20;;;;;;;20.25;59.51;102503.22;4990538;28;20073;-79
2022/07/12 00:29:35;;;;;;;0.10;0.10;;;;;;;20.24;59.86;102501.47;4990647;28;20509;-80
2022/07/12 00:32:02;;;;;;;0.10;0.10;;;;;;;20.22;59.92;102503.31;4988825;28;20418;-79
2022/07/12 00:34:28;;;;;;;0.08;0.08;;;;;;;20.20;59.55;102499.81;4992107;28;20125;-79
2022/07/12 00:36:54;;;;;;;0.00;0.00;;;;;;;20.18;59.99;102501.66;4992730;28;20026;-79
2022/07/12 00:39:20;;;;;;;0.10;0.10;;;;;;;20.15;59.93;102508.03;4992001;28;20037;-79
2022/07/12 00:41:50;;;;;;;0.10;0.10;;;;;;;20.16;60.34;102500.81;4988025;28;20031;-79
2022/07/12 00:44:16;;;;;;;0.03;0.03;;;;;;;20.12;59.82;102500.03;4988613;28;20034;-79
2022/07/12 00:46:44;;;;;;;0.03;0.03;;;;;;;20.10;59.57;102506.41;4991916;28;20069;-79
2022/07/12 00:49:15;;;;;;;0.00;0.00;;;;;;;20.08;59.48;102505.59;4991078;28;20594;-79
2022/07/12 00:51:43;;;;;;;0.20;0.20;;;;;;;20.05;59.87;102509.28;4991456;28;20210;-79
2022/07/12 00:54:10;;;;;;;0.10;0.10;;;;;;;20.03;59.92;102509.31;4992107;28;20031;-79
2022/07/12 00:56:37;;;;;;;0.75;0.63;;;;;;;20.01;60.09;102500.44;4990224;28;20034;-80
2022/07/12 00:59:03;;;;;;;0.10;0.10;;;;;;;20.00;59.78;102506.75;4990858;28;20669;-79
2022/07/12 01:01:29;;;;;;;0.00;0.00;;;;;;;19.99;60.21;102502.28;4990992;28;20046;-79
2022/07/12 01:03:56;;;;;;;0.10;0.10;;;;;;;19.97;60.02;102509.50;4990935;28;20034;-78
2022/07/12 01:06:23;;;;;;;0.10;0.10;;;;;;;19.96;60.08;102514.94;4991734;28;20034;-80
2022/07/12 01:08:49;;;;;;;0.00;0.00;;;;;;;19.93;60.44;102502.47;4991869;28;20113;-78
2022/07/12 01:11:16;;;;;;;0.00;0.00;;;;;;;19.93;60.51;102491.72;4990977;28;20030;-78
2022/07/12 01:13:43;;;;;;;0.10;0.10;;;;;;;19.92;60.51;102483.72;4988428;28;20514;-79
2022/07/12 01:16:12;;;;;;;0.00;0.00;;;;;;;19.91;60.91;102488.19;4988424;28;20042;-79
2022/07/12 01:18:40;;;;;;;0.10;0.10;;;;;;;19.90;60.93;102489.16;4988900;28;20022;-78
2022/07/12 01:21:09;;;;;;;0.00;0.00;;;;;;;19.87;60.77;102484.72;4990089;28;20113;-78
2022/07/12 01:23:37;;;;;;;0.00;0.00;;;;;;;19.82;60.66;102478.59;4991273;28;20094;-79
2022/07/12 01:26:04;;;;;;;0.10;0.10;;;;;;;19.80;60.88;102474.19;4991193;28;20034;-79
2022/07/12 01:28:30;;;;;;;0.10;0.10;;;;;;;19.76;60.44;102473.41;4991147;28;20034;-78
2022/07/12 01:30:56;;;;;;;0.10;0.10;;;;;;;19.71;60.94;102465.50;4988205;28;20037;-78
2022/07/12 01:33:24;;;;;;;0.05;0.05;;;;;;;19.69;60.60;102466.50;4992327;28;20035;-80
2022/07/12 01:35:50;;;;;;;0.05;0.05;;;;;;;19.66;60.87;102469.28;4992303;28;20080;-80
2022/07/12 01:38:16;;;;;;;0.10;0.10;;;;;;;19.61;61.02;102472.09;4993623;28;20027;-79
2022/07/12 01:40:43;;;;;;;0.10;0.10;;;;;;;19.58;60.72;102479.38;4992074;28;20037;-80
2022/07/12 01:43:09;;;;;;;0.10;0.10;;;;;;;19.55;61.03;102489.31;4995824;28;20038;-80
2022/07/12 01:45:35;;;;;;;0.00;0.00;;;;;;;19.50;61.02;102493.06;4997743;28;20030;-80
2022/07/12 01:48:02;;;;;;;0.10;0.10;;;;;;;19.49;60.98;102496.69;4996857;28;20118;-80
2022/07/12 01:50:29;;;;;;;0.10;0.10;;;;;;;19.47;61.08;102493.19;4997333;28;20034;-80
2022/07/12 01:52:55;;;;;;;0.40;0.40;;;;;;;19.45;61.11;102495.94;4995966;28;20525;-80
2022/07/12 01:55:23;;;;;;;0.00;0.00;;;;;;;19.44;61.11;102495.94;4994710;28;20042;-80
2022/07/12 01:57:49;;;;;;;0.25;0.20;;;;;;;19.42;60.86;102497.81;4993100;28;20038;-79
2022/07/12 02:00:16;;;;;;;0.00;0.00;;;;;;;19.42;60.67;102500.50;4997255;28;20391;-80
2022/07/12 02:02:45;;;;;;;0.00;0.00;;;;;;;19.41;61.05;102505.00;4996380;28;20031;-80
2022/07/12 02:05:11;;;;;;;0.10;0.10;;;;;;;19.38;61.15;102500.59;4997471;28;20038;-80
2022/07/12 02:07:39;;;;;;;0.17;0.17;;;;;;;19.36;60.82;102502.44;4997307;28;20509;-80
2022/07/12 02:10:07;;;;;;;0.00;0.00;;;;;;;19.35;60.94;102502.50;4994939;28;20041;-79
2022/07/12 02:12:34;;;;;;;0.10;0.10;;;;;;;19.32;61.12;102500.78;4995104;28;20141;-80
2022/07/12 02:15:00;;;;;;;0.10;0.10;;;;;;;19.31;60.83;102500.84;4996126;28;20433;-80
2022/07/12 02:17:26;;;;;;;0.00;0.00;;;;;;;19.31;60.87;102498.16;4996598;28;20064;-79
2022/07/12 02:19:52;;;;;;;0.00;0.00;;;;;;;19.29;61.15;102500.88;4996174;28;20022;-80
2022/07/12 02:22:19;;;;;;;0.08;0.08;;;;;;;19.28;60.82;102503.59;4996172;28;20045;-80
2022/07/12 02:24:45;;;;;;;0.00;0.00;;;;;;;19.27;60.89;102500.03;4995953;28;20057;-80
2022/07/12 02:27:11;;;;;;;0.00;0.00;;;;;;;19.26;60.72;102500.97;4995966;28;20096;-79
2022/07/12 02:29:37;;;;;;;0.00;0.00;;;;;;;19.24;60.98;102513.59;4996829;28;20058;-79
2022/07/12 02:32:04;;;;;;;0.00;0.00;;;;;;;19.22;60.85;102502.00;4991339;28;20030;-80
2022/07/12 02:34:30;;;;;;;0.00;0.00;;;;;;;19.20;61.12;102506.53;4996683;28;20056;-80
2022/07/12 02:36:56;;;;;;;0.47;0.47;;;;;;;19.17;61.09;102495.88;4996952;28;20057;-80
2022/07/12 02:39:23;;;;;;;0.00;0.00;;;;;;;19.17;61.09;102490.50;4994443;28;20030;-79
2022/07/12 02:41:49;;;;;;;0.00;0.00;;;;;;;19.16;60.85;102486.06;4987505;28;20031;-80
2022/07/12 02:44:15;;;;;;;0.08;0.08;;;;;;;19.15;60.92;102497.72;4995503;28;20069;-80
2022/07/12 02:46:41;;;;;;;0.10;0.10;;;;;;;19.14;61.18;102491.47;4995436;28;20042;-80
2022/07/12 02:49:07;;;;;;;0.00;0.00;;;;;;;19.14;61.65;102490.59;4995760;28;20080;-80
2022/07/12 02:51:34;;;;;;;0.00;0.00;;;;;;;19.14;61.19;102490.59;4995028;28;20026;-80
2022/07/12 02:54:00;;;;;;;0.00;0.00;;;;;;;19.13;61.03;102495.09;4993797;28;20061;-79
2022/07/12 02:56:27;;;;;;;0.88;0.30;;;;;;;19.11;61.65;102496.94;4991773;28;20049;-80
2022/07/12 02:58:53;;;;;;;0.38;0.38;;;;;;;19.08;61.22;102489.84;4995956;28;20027;-80
2022/07/12 03:01:19;;;;;;;0.00;0.00;;;;;;;19.06;60.70;102494.38;4995304;28;20030;-79
2022/07/12 03:03:45;;;;;;;0.10;0.10;;;;;;;19.03;60.95;102493.59;4995443;28;20065;-80
2022/07/12 03:06:12;;;;;;;0.08;0.08;;;;;;;19.00;60.91;102494.53;4992734;28;20038;-80
2022/07/12 03:08:39;;;;;;;0.00;0.00;;;;;;;18.98;61.29;102499.09;4996633;28;20088;-80
2022/07/12 03:11:05;;;;;;;0.00;0.00;;;;;;;18.99;61.27;102502.66;4992622;28;20030;-80
2022/07/12 03:13:31;;;;;;;0.10;0.10;;;;;;;18.98;61.44;102499.09;4995921;28;20603;-80
2022/07/12 03:15:57;;;;;;;0.10;0.10;;;;;;;18.97;61.14;102510.78;5002797;28;20030;-80
2022/07/12 03:18:23;;;;;;;5.93;0.52;;;;;;;18.95;61.28;102509.91;4996001;28;20034;-79
2022/07/12 03:20:49;;;;;;;0.10;0.10;;;;;;;18.94;61.51;102516.25;4994153;28;20042;-79
2022/07/12 03:23:15;;;;;;;0.10;0.10;;;;;;;18.94;61.53;102515.34;4993397;28;20038;-79
2022/07/12 03:25:42;;;;;;;0.10;0.10;;;;;;;18.94;62.00;102510.88;4993993;28;20034;-79
2022/07/12 03:28:08;;;;;;;0.10;0.10;;;;;;;18.94;61.95;102505.50;4993587;28;20034;-80
2022/07/12 03:30:35;;;;;;;0.00;0.00;;;;;;;18.94;61.44;102513.56;4994570;28;20033;-79
2022/07/12 03:33:01;;;;;;;0.32;0.25;;;;;;;18.94;61.78;102518.03;4991932;28;20065;-79
2022/07/12 03:35:27;;;;;;;0.00;0.00;;;;;;;18.94;61.74;102520.72;4994604;28;20053;-79
2022/07/12 03:37:53;;;;;;;0.05;0.05;;;;;;;18.95;62.05;102522.47;4993748;28;20034;-80
2022/07/12 03:40:20;;;;;;;0.08;0.08;;;;;;;18.96;62.07;102519.75;4988402;28;20030;-79
2022/07/12 03:42:48;;;;;;;0.10;0.10;;;;;;;18.95;61.79;102517.97;4990968;28;20520;-79
2022/07/12 03:45:14;;;;;;;0.10;0.10;;;;;;;18.94;61.55;102520.72;4993620;28;20034;-79
2022/07/12 03:47:41;;;;;;;0.10;0.10;;;;;;;18.92;61.38;102518.09;4995108;28;20034;-79
2022/07/12 03:50:11;;;;;;;0.10;0.10;;;;;;;18.91;61.73;102516.31;4995158;28;20109;-79
2022/07/12 03:52:38;;;;;;;0.00;0.00;;;;;;;18.90;61.65;102511.81;4994024;28;20134;-79
2022/07/12 03:55:05;;;;;;;0.10;0.10;;;;;;;18.89;61.87;102516.34;4993795;28;20027;-79
2022/07/12 03:57:31;;;;;;;0.00;0.00;;;;;;;18.91;61.56;102510.94;4989538;28;20061;-80
2022/07/12 03:59:57;;;;;;;0.00;0.00;;;;;;;18.90;61.51;102515.44;4987319;28;20466;-78
2022/07/12 04:02:24;;;;;;;0.00;0.00;;;;;;;18.91;61.42;102514.50;4989314;28;20529;-78
2022/07/12 04:04:51;;;;;;;0.13;0.13;;;;;;;18.92;61.49;102513.56;4994197;28;20027;-80
2022/07/12 04:07:17;;;;;;;0.10;0.10;;;;;;;18.95;61.85;102506.38;4993710;28;20030;-79
2022/07/12 04:09:43;;;;;;;0.08;0.08;;;;;;;18.99;61.40;102513.41;4990890;28;20446;-79
2022/07/12 04:12:10;;;;;;;0.00;0.00;;;;;;;19.04;61.43;102507.00;4991507;28;20596;-78
2022/07/12 04:14:36;;;;;;;0.08;0.08;;;;;;;19.07;61.29;102506.88;4994561;28;20034;-79
2022/07/12 04:17:04;;;;;;;0.10;0.10;;;;;;;19.12;61.35;102508.56;4994478;28;20026;-79
2022/07/12 04:19:31;;;;;;;0.00;0.00;;;;;;;19.15;61.38;102509.38;4994885;28;20030;-80
2022/07/12 04:21:58;;;;;;;0.22;0.22;;;;;;;19.18;61.10;102519.16;4991136;28;20495;-80
2022/07/12 04:24:25;;;;;;;0.00;0.00;;;;;;;19.21;61.12;102517.22;4992931;28;20109;-79
2022/07/12 04:26:51;;;;;;;0.03;0.03;;;;;;;19.26;61.35;102518.91;4994666;28;20105;-80
2022/07/12 04:29:18;;;;;;;0.10;0.10;;;;;;;19.31;61.57;102525.88;4993802;28;20034;-80
2022/07/12 04:31:44;;;;;;;0.20;0.20;;;;;;;19.37;61.73;102528.38;4993391;28;20085;-79
2022/07/12 04:34:10;;;;;;;0.22;0.22;;;;;;;19.43;61.73;102524.66;4993976;28;20034;-79
2022/07/12 04:36:37;;;;;;;0.03;0.03;;;;;;;19.48;61.67;102527.22;4994176;28;20030;-79
2022/07/12 04:39:04;;;;;;;0.10;0.10;;;;;;;19.54;61.81;102529.72;4991086;28;20057;-79
2022/07/12 04:41:30;;;;;;;0.10;0.10;;;;;;;19.59;61.68;102525.06;4992387;28;20064;-79
2022/07/12 04:43:56;;;;;;;0.10;0.10;;;;;;;19.63;61.58;102531.22;4994560;28;20688;-79
2022/07/12 04:46:22;;;;;;;0.10;0.10;;;;;;;19.68;62.12;102535.50;4994486;28;20540;-78
2022/07/12 04:48:48;;;;;;;0.00;0.00;;;;;;;19.73;62.16;102533.56;4994112;28;20113;-78
2022/07/12 04:51:16;;;;;;;0.00;0.00;;;;;;;19.79;62.11;102527.13;4993783;28;20421;-79
2022/07/12 04:53:42;;;;;;;0.10;0.10;;;;;;;19.85;62.11;102528.75;4994834;28;20033;-79
2022/07/12 04:56:08;;;;;;;0.10;0.10;;;;;;;19.89;61.75;102527.72;4987667;28;20072;-79
2022/07/12 04:58:35;;;;;;;0.55;0.47;;;;;;;19.94;62.29;102520.38;4993716;28;20034;-80
2022/07/12 05:01:01;;;;;;;0.00;0.00;;;;;;;19.97;62.29;102524.78;4992996;28;20378;-79
2022/07/12 05:03:28;;;;;;;0.00;0.00;;;;;;;20.00;62.93;102522.88;4994215;28;20101;-79
2022/07/12 05:05:55;;;;;;;0.10;0.10;;;;;;;20.04;62.81;102523.66;4994539;28;20022;-79
2022/07/12 05:08:21;;;;;;;0.00;0.00;;;;;;;20.04;62.97;102527.22;4994468;28;20498;-80
2022/07/12 05:10:48;;;;;;;0.10;0.10;;;;;;;20.09;62.60;102524.38;4993385;28;20033;-79
2022/07/12 05:13:14;;;;;;;0.10;0.10;;;;;;;20.13;63.08;102522.47;4990418;28;20066;-79
2022/07/12 05:15:40;;;;;;;0.10;0.10;;;;;;;20.17;63.02;102529.50;4995042;28;20038;-79
2022/07/12 05:18:06;;;;;;;0.10;0.10;;;;;;;20.20;63.03;102532.97;4997750;28;20034;-79
2022/07/12 05:20:33;;;;;;;0.00;0.00;;;;;;;20.26;63.19;102534.59;4991524;28;20507;-78
2022/07/12 05:22:59;;;;;;;0.10;0.10;;;;;;;20.35;62.79;102536.94;4995919;28;20498;-78
2022/07/12 05:25:25;;;;;;;0.20;0.20;;;;;;;20.42;62.85;102536.75;4995099;28;20061;-78
2022/07/12 05:27:51;;;;;;;0.10;0.10;;;;;;;20.45;62.64;102540.22;4996485;28;20119;-80
2022/07/12 05:30:17;;;;;;;0.10;0.10;;;;;;;20.52;62.53;102543.56;4997124;28;20061;-79
2022/07/12 05:32:43;;;;;;;0.00;0.00;;;;;;;20.57;62.23;102544.28;4996444;28;20486;-79
2022/07/12 05:35:10;;;;;;;0.10;0.10;;;;;;;20.62;62.43;102550.41;4997351;28;20414;-80
2022/07/12 05:37:36;;;;;;;0.13;0.13;;;;;;;20.68;62.44;102549.28;4994109;28;20084;-79
2022/07/12 05:40:02;;;;;;;0.10;0.10;;;;;;;20.74;62.28;102537.47;4994943;28;20395;-80
2022/07/12 05:42:28;;;;;;;0.10;0.10;;;;;;;20.79;62.84;102547.13;4993380;28;20501;-79
2022/07/12 05:44:54;;;;;;;0.20;0.20;;;;;;;20.88;62.47;102548.59;4998711;28;20034;-79
2022/07/12 05:47:20;;;;;;;0.00;0.00;;;;;;;20.95;62.92;102546.56;5000864;28;20524;-79
2022/07/12 05:49:46;;;;;;;0.00;0.00;;;;;;;21.02;62.19;102548.09;4997333;28;20050;-80
2022/07/12 05:54:58;;;;;;;1.13;0.65;;;;;;;21.15;62.56;102554.78;4984780;28;20043;-79
2022/07/12 05:57:24;;;;;;;0.10;0.10;;;;;;;21.21;62.67;102547.41;4988004;28;20058;-79
2022/07/12 05:59:50;;;;;;;0.10;0.10;;;;;;;21.30;62.30;102560.53;5002337;28;20482;-78
2022/07/12 06:02:16;;;;;;;0.00;0.00;;;;;;;21.36;62.27;102559.41;4993694;28;20034;-79
2022/07/12 06:04:42;;;;;;;0.10;0.10;;;;;;;21.44;62.05;102551.91;5003038;28;20040;-79
2022/07/12 06:07:09;;;;;;;0.10;0.10;;;;;;;21.52;61.95;102546.22;4999022;28;20061;-79
2022/07/12 06:09:35;;;;;;;0.10;0.10;;;;;;;21.60;61.50;102554.94;4994734;28;20117;-79
2022/07/12 06:12:01;;;;;;;0.10;0.10;;;;;;;21.64;62.35;102552.03;4987762;28;20506;-79
2022/07/12 06:14:27;;;;;;;0.10;0.10;;;;;;;21.75;61.51;102548.06;5000115;28;20026;-79
2022/07/12 06:16:53;;;;;;;2.00;0.90;;;;;;;21.76;61.57;102553.38;5016421;28;20022;-79
2022/07/12 06:19:19;;;;;;;0.10;0.10;;;;;;;21.80;61.36;102551.44;4996165;28;20030;-79
2022/07/12 06:21:45;;;;;;;0.08;0.08;;;;;;;21.85;60.72;102554.81;4986847;28;20055;-82
2022/07/12 06:24:11;;;;;;;0.10;0.10;;;;;;;21.90;60.68;102554.66;4996774;28;20299;-80
2022/07/12 06:26:37;;;;;;;0.10;0.10;;;;;;;21.95;60.50;102555.34;4997162;28;20494;-80
2022/07/12 06:29:03;;;;;;;0.05;0.05;;;;;;;21.95;60.76;102553.50;4993110;28;20034;-79
2022/07/12 06:31:29;;;;;;;0.10;0.10;;;;;;;22.03;60.32;102557.72;4996055;28;20097;-80
2022/07/12 06:33:56;;;;;;;2.90;1.08;;;;;;;22.09;60.34;102557.44;4996533;28;20058;-80
2022/07/12 06:36:22;;;;;;;0.10;0.10;;;;;;;22.16;60.14;102568.88;4996829;28;20029;-80
2022/07/12 06:38:48;;;;;;;0.10;0.10;;;;;;;22.21;60.33;102561.47;4990018;28;20037;-79
2022/07/12 06:41:14;;;;;;;0.10;0.10;;;;;;;22.28;60.20;102557.56;4996899;28;20042;-79
2022/07/12 06:43:40;;;;;;;0.08;0.08;;;;;;;22.36;60.10;102554.56;4997198;28;20026;-80
2022/07/12 06:46:06;;;;;;;0.85;0.85;;;;;;;22.43;60.02;102556.06;4999338;28;20038;-80
2022/07/12 06:48:32;;;;;;;0.40;0.40;;;;;;;22.51;59.65;102561.16;4996646;28;20048;-81
2022/07/12 06:50:58;;;;;;;0.03;0.03;;;;;;;22.60;59.47;102563.44;4996005;28;20046;-80
2022/07/12 06:53:24;;;;;;;0.10;0.10;;;;;;;22.66;59.58;102567.72;4992997;28;20061;-80
2022/07/12 06:55:50;;;;;;;0.00;0.00;;;;;;;22.74;59.37;102570.94;4994671;28;20042;-80
2022/07/12 06:58:16;;;;;;;0.08;0.08;;;;;;;22.82;59.11;102567.88;4988829;28;20130;-80
2022/07/12 07:00:43;;;;;;;0.10;0.10;;;;;;;22.86;59.09;102556.00;5006284;28;20115;-80
2022/07/12 07:03:09;;;;;;;0.45;0.45;;;;;;;22.91;59.10;102562.09;5015781;28;20061;-80
2022/07/12 07:05:36;;;;;;;0.10;0.10;;;;;;;22.99;58.91;102564.44;5011615;28;20486;-80
2022/07/12 07:08:03;;;;;;;0.08;0.08;;;;;;;23.04;58.82;102562.38;4994360;28;20030;-79
2022/07/12 07:10:29;;;;;;;4.07;0.60;;;;;;;23.12;58.50;102557.53;4994563;28;20034;-79
2022/07/12 07:12:55;;;;;;;0.15;0.15;;;;;;;23.18;58.49;102559.97;4994002;28;20573;-79
2022/07/12 07:15:21;;;;;;;0.75;0.75;;;;;;;23.21;58.29;102564.38;4992898;28;20465;-80
2022/07/12 07:17:47;;;;;;;0.25;0.25;;;;;;;23.26;57.54;102563.22;5013360;28;20129;-79
2022/07/12 07:20:14;;;;;;;0.10;0.10;;;;;;;23.26;56.87;102565.91;5000272;28;20026;-78
2022/07/12 07:22:40;;;;;;;0.57;0.55;;;;;;;23.38;57.57;102561.75;4984321;28;20057;-78
2022/07/12 07:25:06;;;;;;;0.10;0.10;;;;;;;23.42;57.40;102563.34;4986956;28;20089;-79
2022/07/12 07:27:32;;;;;;;1.08;0.60;;;;;;;23.46;57.00;102564.09;4980569;28;20185;-79
2022/07/12 07:32:45;;;;;;;0.00;0.00;;;;;;;23.60;56.88;102560.72;4986962;28;20049;-80
2022/07/12 07:35:11;;;;;;;0.10;0.10;;;;;;;23.69;56.87;102554.88;4989155;28;20022;-80
2022/07/12 07:37:38;;;;;;;0.05;0.05;;;;;;;23.78;56.82;102553.53;4996797;28;20066;-80
2022/07/12 07:40:05;;;;;;;0.10;0.10;;;;;;;23.89;56.08;102553.91;4991258;28;20041;-79
2022/07/12 07:42:31;;;;;;;0.15;0.15;;;;;;;24.04;55.61;102554.13;4989587;28;20121;-79
2022/07/12 07:44:57;;;;;;;0.10;0.10;;;;;;;24.15;55.69;102549.03;4992157;28;20041;-80
2022/07/12 07:47:23;;;;;;;1.45;0.50;;;;;;;24.30;55.77;102560.03;4991305;28;20045;-79
2022/07/12 07:49:49;;;;;;;0.10;0.10;;;;;;;24.35;55.11;102558.84;4980059;28;20486;-79
2022/07/12 07:52:15;;;;;;;0.00;0.00;;;;;;;24.44;53.29;102548.50;4979302;28;20027;-80
2022/07/12 07:54:41;;;;;;;0.15;0.15;;;;;;;24.58;53.70;102559.50;4992318;28;20042;-79
2022/07/12 07:57:09;;;;;;;0.10;0.10;;;;;;;24.70;53.57;102564.31;4989885;28;20463;-79
2022/07/12 07:59:36;;;;;;;0.90;0.55;;;;;;;24.70;53.16;102563.44;4991930;28;20125;-79
2022/07/12 08:02:03;;;;;;;0.38;0.38;;;;;;;24.71;53.52;102557.03;5001645;28;20035;-79
2022/07/12 08:04:29;;;;;;;0.22;0.22;;;;;;;24.70;52.91;102558.88;4985090;28;20034;-79
2022/07/12 08:06:56;;;;;;;0.80;0.75;;;;;;;24.63;53.35;102560.13;4989789;28;20035;-80
2022/07/12 08:09:22;;;;;;;0.10;0.10;;;;;;;24.60;54.10;102567.53;4986943;28;20061;-80
2022/07/12 08:11:48;;;;;;;0.20;0.20;;;;;;;24.51;54.45;102561.66;4979939;28;20062;-79
2022/07/12 08:14:15;;;;;;;0.20;0.20;;;;;;;24.47;54.29;102553.75;4984838;28;20042;-79
2022/07/12 08:16:41;;;;;;;26.88;1.20;;;;;;;24.42;53.94;102564.81;4991603;28;20022;-79
2022/07/12 08:19:07;;;;;;;0.10;0.10;;;;;;;24.33;53.88;102560.75;4991947;28;20134;-80
2022/07/12 08:21:33;;;;;;;0.00;0.00;;;;;;;24.32;54.20;102560.84;4991220;28;20034;-80
2022/07/12 08:23:59;;;;;;;0.10;0.10;;;;;;;24.38;54.10;102564.09;4994287;28;20117;-79
2022/07/12 08:26:25;;;;;;;0.10;0.10;;;;;;;24.45;54.22;102564.69;4988267;28;20383;-78
2022/07/12 08:28:52;;;;;;;0.05;0.05;;;;;;;24.58;53.74;102569.47;4977412;28;20121;-78
2022/07/12 08:33:47;;;;;;;0.00;0.00;;;;;;;24.78;52.27;102565.72;5034813;28;20140;-83
2022/07/12 08:36:13;;;;;;;0.10;0.10;;;;;;;24.97;51.86;102557.47;5036426;28;20033;-84
2022/07/12 08:38:43;;;;;;;0.10;0.10;;;;;;;25.15;50.75;102559.19;5036169;28;20026;-82
2022/07/12 08:41:12;;;;;;;0.13;0.13;;;;;;;25.32;51.08;102562.81;5027786;28;20125;-83
2022/07/12 08:43:39;;;;;;;0.20;0.20;;;;;;;25.42;51.09;102555.06;5005789;28;20038;-82
2022/07/12 08:46:07;;;;;;;0.20;0.20;;;;;;;25.54;50.72;102553.50;5001061;28;20030;-83
2022/07/12 08:48:35;;;;;;;0.00;0.00;;;;;;;25.70;51.12;102548.09;5011101;28;20033;-83
2022/07/12 08:51:05;;;;;;;0.88;0.45;;;;;;;25.70;49.29;102542.66;5014437;28;20034;-82
2022/07/12 08:53:32;;;;;;;0.90;0.45;;;;;;;25.98;49.91;102547.34;5018761;28;20037;-82
2022/07/12 08:55:58;;;;;;;0.47;0.47;;;;;;;26.18;49.33;102556.19;5018852;28;20509;-84
2022/07/12 08:58:25;;;;;;;0.15;0.15;;;;;;;26.23;48.03;102545.91;5016861;28;20121;-82
2022/07/12 09:00:51;;;;;;;0.10;0.10;;;;;;;26.27;48.50;102540.22;5005420;28;20069;-82
2022/07/12 09:03:18;;;;;;;0.10;0.10;;;;;;;26.38;48.15;102546.84;5014590;28;20037;-83
2022/07/12 09:05:52;;;;;;;1.48;0.50;;;;;;;26.47;47.03;102549.88;5020416;28;20114;-83
2022/07/12 09:08:23;;;;;;;0.10;0.10;;;;;;;26.65;48.25;102549.72;5018464;28;20513;-83
2022/07/12 09:13:52;;;;;;;0.30;0.30;;;;;;;27.06;47.20;102551.72;5044280;28;20427;-82
2022/07/12 09:16:20;;;;;;;1.10;0.22;;;;;;;27.03;44.03;102551.94;5031931;28;20072;-81
2022/07/12 09:18:47;;;;;;;0.30;0.30;;;;;;;27.19;44.47;102550.94;5031992;28;20022;-80
2022/07/12 09:21:30;;;;;;;0.20;0.20;;;;;;;27.35;44.54;102548.13;5031134;28;20026;-80
2022/07/12 09:23:58;;;;;;;0.10;0.10;;;;;;;27.38;45.09;102551.53;5033112;28;20025;-81
2022/07/12 09:26:30;;;;;;;0.10;0.10;;;;;;;27.51;43.93;102546.19;5024452;28;20026;-80
2022/07/12 09:29:10;;;;;;;0.13;0.13;;;;;;;27.66;42.86;102548.88;5030845;28;20451;-83
2022/07/12 09:37:20;;;;;;;0.30;0.30;;;;;;;27.74;43.38;102547.41;5031130;28;20037;-81
2022/07/12 09:39:48;;;;;;;0.38;0.38;;;;;;;27.65;43.43;102548.00;5024300;28;20026;-81
2022/07/12 09:42:14;;;;;;;1.55;0.73;;;;;;;27.71;43.08;102550.31;5021103;28;20061;-80
2022/07/12 09:44:41;;;;;;;0.10;0.10;;;;;;;27.79;42.39;102538.94;5031777;28;20029;-82
2022/07/12 09:47:13;;;;;;;0.10;0.10;;;;;;;27.90;43.39;102540.91;5028264;28;20026;-82
2022/07/12 09:49:40;;;;;;;0.10;0.10;;;;;;;27.90;44.44;102541.81;5025465;28;20034;-82
2022/07/12 09:52:12;;;;;;;0.00;0.00;;;;;;;27.93;43.15;102546.16;5019243;28;20045;-83
2022/07/12 09:54:41;;;;;;;0.25;0.25;;;;;;;27.88;40.32;102548.34;5030777;28;20115;-82
2022/07/12 09:57:19;;;;;;;0.10;0.10;;;;;;;27.87;41.49;102550.16;5033679;28;20029;-82
2022/07/12 09:59:46;;;;;;;1.02;0.47;;;;;;;27.84;41.34;102552.22;5034166;28;20088;-82
2022/07/12 10:02:15;;;;;;;0.20;0.20;;;;;;;27.91;42.83;102553.56;5030339;28;20044;-82
2022/07/12 10:04:42;;;;;;;0.17;0.17;;;;;;;27.89;42.67;102544.63;5022594;28;20117;-82
2022/07/12 10:07:12;;;;;;;0.10;0.10;;;;;;;27.97;42.12;102547.69;5028356;28;20030;-81
2022/07/12 10:09:40;;;;;;;0.10;0.10;;;;;;;28.18;42.29;102550.00;5030356;28;20034;-81
2022/07/12 10:12:08;;;;;;;0.20;0.20;;;;;;;28.37;41.75;102544.13;5029967;28;20093;-81
2022/07/12 10:14:34;;;;;;;0.28;0.28;;;;;;;28.45;40.20;102540.88;5032399;28;20038;-82
2022/07/12 10:17:03;;;;;;;0.10;0.10;;;;;;;28.51;40.12;102551.34;5032909;28;20029;-82
2022/07/12 10:19:32;;;;;;;1.35;1.35;;;;;;;28.54;41.09;102548.44;5027000;28;20045;-82
2022/07/12 10:22:02;;;;;;;0.00;0.00;;;;;;;28.48;39.94;102547.00;5028425;28;20028;-81
2022/07/12 10:30:14;;;;;;;0.63;0.63;;;;;;;28.61;39.78;102552.44;5114126;27;20133;-80
2022/07/12 10:32:43;;;;;;;0.10;0.10;;;;;;;28.60;39.65;102545.28;5106879;28;20028;-80
2022/07/12 10:38:18;;;;;;;0.15;0.15;;;;;;;28.81;40.92;102552.94;5155243;27;20389;-80
2022/07/12 10:40:46;;;;;;;0.10;0.10;;;;;;;28.79;39.13;102557.66;5153878;27;20046;-80
2022/07/12 10:43:15;;;;;;;0.10;0.10;;;;;;;28.82;38.84;102560.13;5151802;27;20110;-80
2022/07/12 10:45:43;;;;;;;0.10;0.10;;;;;;;28.77;37.84;102557.72;5152977;27;20035;-80
2022/07/12 10:53:33;;;;;;;0.22;0.22;;;;;;;29.19;37.51;102546.59;5097173;27;20413;-79
2022/07/12 10:56:17;;;;;;;0.30;0.30;;;;;;;29.36;39.23;102546.25;5095812;28;20036;-80
2022/07/12 10:58:53;;;;;;;0.15;0.15;;;;;;;29.41;37.83;102542.31;5087285;28;20031;-83
2022/07/12 11:04:06;;;;;;;0.00;0.00;;;;;;;29.57;37.78;102534.69;5069750;28;20368;-81
2022/07/12 11:06:37;;;;;;;0.17;0.15;;;;;;;29.65;38.89;102536.88;5069449;28;20420;-81
2022/07/12 11:09:12;;;;;;;0.25;0.25;;;;;;;29.63;37.25;102536.97;5068263;28;20033;-81
2022/07/12 11:11:50;;;;;;;0.57;0.57;;;;;;;29.81;36.63;102536.59;5067089;28;20048;-80
2022/07/12 11:14:26;;;;;;;0.10;0.10;;;;;;;29.97;36.33;102534.47;5064788;28;20032;-81
2022/07/12 11:16:54;;;;;;;0.20;0.20;;;;;;;29.98;36.50;102538.97;5063163;28;20028;-81
2022/07/12 11:19:23;;;;;;;0.10;0.10;;;;;;;29.97;37.94;102531.75;5063708;28;20037;-81
2022/07/12 11:21:55;;;;;;;0.45;0.45;;;;;;;29.98;37.51;102530.75;5059240;28;20516;-81
2022/07/12 11:24:24;;;;;;;0.10;0.10;;;;;;;30.04;36.53;102531.28;5068695;28;20041;-82
2022/07/12 11:26:52;;;;;;;0.08;0.08;;;;;;;30.17;35.80;102529.34;5068547;28;20025;-82
2022/07/12 11:29:18;;;;;;;0.00;0.00;;;;;;;30.33;37.55;102532.63;5068598;28;20032;-82
2022/07/12 11:31:45;;;;;;;0.00;0.00;;;;;;;30.46;38.34;102523.47;5066673;28;20111;-82
2022/07/12 11:34:27;;;;;;;0.52;0.32;;;;;;;30.75;35.71;102525.75;5070632;28;20093;-82
2022/07/12 11:36:55;;;;;;;0.20;0.20;;;;;;;30.79;34.55;102532.72;5060399;28;20381;-82
2022/07/12 11:39:39;;;;;;;0.47;0.47;;;;;;;31.02;34.95;102528.13;5070489;28;20036;-82
2022/07/12 11:42:06;;;;;;;0.00;0.00;;;;;;;31.04;34.00;102519.81;5068074;28;20028;-82
2022/07/12 11:44:49;;;;;;;0.10;0.10;;;;;;;31.20;34.73;102524.94;5074805;28;20025;-82
2022/07/12 11:47:18;;;;;;;0.00;0.00;;;;;;;31.19;34.09;102521.34;5065147;28;20028;-82
2022/07/12 11:49:48;;;;;;;0.20;0.20;;;;;;;31.21;35.64;102516.56;5070528;28;20025;-83
2022/07/12 11:52:17;;;;;;;0.00;0.00;;;;;;;31.32;34.85;102512.06;5074837;28;20025;-83
2022/07/12 11:54:44;;;;;;;0.10;0.10;;;;;;;31.39;33.63;102510.56;5074815;28;20385;-83
2022/07/12 11:57:12;;;;;;;0.20;0.20;;;;;;;31.44;34.50;102503.72;5075377;28;20037;-82